This is the latest recevied weather packets stored in our database for station/object N5PUP-13. If no packets are shown the sender has not sent any weather packets the latest 10 day(s).
| Time | Temp. | Humidity | Pressure | Rain* | Wind** | Luminosity | Snow |
|---|---|---|---|---|---|---|---|
| 1787677800 | 32.78° C | 53% | 1016.2 hPa | 0 mm | - | - | - |
| 1787677500 | 32.22° C | 56% | 1016.2 hPa | 0 mm | - | - | - |
| 1787677200 | 31.67° C | 56% | 1016.2 hPa | 0 mm | - | - | - |
| 1787676900 | 32.22° C | 55% | 1016.3 hPa | 0 mm | - | - | - |
| 1787676600 | 31.67° C | 57% | 1016.3 hPa | 0 mm | - | - | - |
| 1787676300 | 31.67° C | 57% | 1016.4 hPa | 0 mm | - | - | - |
| 1787676000 | 31.11° C | 58% | 1016.4 hPa | 0 mm | - | - | - |
| 1787675700 | 31.11° C | 58% | 1016.5 hPa | 0 mm | - | - | - |
| 1787675400 | 31.67° C | 58% | 1016.5 hPa | 0 mm | - | - | - |
| 1787675100 | 30° C | 62% | 1016.4 hPa | 0 mm | - | - | - |
| 1787674800 | 30° C | 64% | 1016.2 hPa | 0 mm | - | - | - |
| 1787674500 | 30.56° C | 62% | 1016 hPa | 0 mm | - | - | - |
| 1787674200 | 30.56° C | 62% | 1016 hPa | 0 mm | - | - | - |
| 1787673900 | 31.11° C | 60% | 1016 hPa | 0 mm | - | - | - |
| 1787673600 | 30° C | 64% | 1016 hPa | 0 mm | - | - | - |
| 1787673300 | 30° C | 65% | 1015.9 hPa | 0 mm | - | - | - |
| 1787673000 | 29.44° C | 65% | 1015.9 hPa | 0 mm | - | - | - |
| 1787672700 | 29.44° C | 66% | 1015.8 hPa | 0 mm | - | - | - |
| 1787672400 | 28.89° C | 68% | 1015.8 hPa | 0 mm | - | - | - |
| 1787672100 | 28.33° C | 68% | 1015.7 hPa | 0 mm | - | - | - |
| 1787671800 | 28.33° C | 69% | 1015.7 hPa | 0 mm | - | - | - |
| 1787671500 | 27.78° C | 71% | 1015.7 hPa | 0 mm | - | - | - |
| 1787671200 | 27.78° C | 71% | 1015.6 hPa | 0 mm | - | - | - |
| 1787670900 | 27.22° C | 73% | 1015.5 hPa | 0 mm | - | - | - |
| 1787670600 | 27.22° C | 74% | 1015.4 hPa | 0 mm | - | - | - |
* Rain latest hour (hover to see other rain measurements)
** Current wind speed in m/s (hover to see current wind gust speed)